sensor_id;sensor_type;location;lat;lon;timestamp;temperature;humidity
70300;HTU21D;57704;51.112;5.878;2022-07-29T00:02:00;22.43;43.06
70300;HTU21D;57704;51.112;5.878;2022-07-29T00:04:26;22.40;43.13
70300;HTU21D;57704;51.112;5.878;2022-07-29T00:06:52;22.38;43.20
70300;HTU21D;57704;51.112;5.878;2022-07-29T00:09:18;22.38;43.24
70300;HTU21D;57704;51.112;5.878;2022-07-29T00:11:44;22.33;43.37
70300;HTU21D;57704;51.112;5.878;2022-07-29T00:14:09;22.28;43.51
70300;HTU21D;57704;51.112;5.878;2022-07-29T00:16:35;22.26;43.51
70300;HTU21D;57704;51.112;5.878;2022-07-29T00:19:02;22.27;43.55
70300;HTU21D;57704;51.112;5.878;2022-07-29T00:21:29;22.29;43.59
70300;HTU21D;57704;51.112;5.878;2022-07-29T00:23:55;22.33;43.51
70300;HTU21D;57704;51.112;5.878;2022-07-29T00:26:21;22.37;43.42
70300;HTU21D;57704;51.112;5.878;2022-07-29T00:28:46;22.43;43.39
70300;HTU21D;57704;51.112;5.878;2022-07-29T00:31:12;22.48;43.48
70300;HTU21D;57704;51.112;5.878;2022-07-29T00:33:41;22.48;44.15
70300;HTU21D;57704;51.112;5.878;2022-07-29T00:36:07;22.36;45.09
70300;HTU21D;57704;51.112;5.878;2022-07-29T00:38:33;22.21;45.77
70300;HTU21D;57704;51.112;5.878;2022-07-29T00:41:02;21.99;46.28
70300;HTU21D;57704;51.112;5.878;2022-07-29T00:43:28;21.89;46.70
70300;HTU21D;57704;51.112;5.878;2022-07-29T00:45:54;21.83;46.91
70300;HTU21D;57704;51.112;5.878;2022-07-29T00:48:20;21.82;46.98
70300;HTU21D;57704;51.112;5.878;2022-07-29T00:50:46;21.76;47.02
70300;HTU21D;57704;51.112;5.878;2022-07-29T00:53:12;21.75;47.12
70300;HTU21D;57704;51.112;5.878;2022-07-29T00:55:38;21.67;48.12
70300;HTU21D;57704;51.112;5.878;2022-07-29T00:58:04;21.34;50.69
70300;HTU21D;57704;51.112;5.878;2022-07-29T01:00:31;20.81;52.79
70300;HTU21D;57704;51.112;5.878;2022-07-29T01:02:57;20.40;54.75
70300;HTU21D;57704;51.112;5.878;2022-07-29T01:05:28;20.00;55.75
70300;HTU21D;57704;51.112;5.878;2022-07-29T01:07:55;19.76;57.16
70300;HTU21D;57704;51.112;5.878;2022-07-29T01:10:23;19.62;58.13
70300;HTU21D;57704;51.112;5.878;2022-07-29T01:12:52;19.57;58.44
70300;HTU21D;57704;51.112;5.878;2022-07-29T01:15:20;19.48;58.92
70300;HTU21D;57704;51.112;5.878;2022-07-29T01:18:11;19.52;59.13
70300;HTU21D;57704;51.112;5.878;2022-07-29T01:21:16;19.45;58.75
70300;HTU21D;57704;51.112;5.878;2022-07-29T01:26:31;19.36;60.48
70300;HTU21D;57704;51.112;5.878;2022-07-29T01:29:02;19.07;62.45
70300;HTU21D;57704;51.112;5.878;2022-07-29T01:34:08;18.32;66.43
70300;HTU21D;57704;51.112;5.878;2022-07-29T01:36:48;18.03;69.01
70300;HTU21D;57704;51.112;5.878;2022-07-29T01:50:25;17.41;74.00
70300;HTU21D;57704;51.112;5.878;2022-07-29T01:53:02;17.34;72.88
70300;HTU21D;57704;51.112;5.878;2022-07-29T01:55:34;17.38;73.48
70300;HTU21D;57704;51.112;5.878;2022-07-29T01:58:04;17.38;73.74
70300;HTU21D;57704;51.112;5.878;2022-07-29T02:00:33;17.32;73.73
70300;HTU21D;57704;51.112;5.878;2022-07-29T02:03:05;17.22;74.06
70300;HTU21D;57704;51.112;5.878;2022-07-29T02:05:35;17.20;74.41
70300;HTU21D;57704;51.112;5.878;2022-07-29T02:08:04;17.21;74.67
70300;HTU21D;57704;51.112;5.878;2022-07-29T02:10:33;17.13;74.80
70300;HTU21D;57704;51.112;5.878;2022-07-29T02:13:02;17.11;75.53
70300;HTU21D;57704;51.112;5.878;2022-07-29T02:15:32;17.06;75.33
70300;HTU21D;57704;51.112;5.878;2022-07-29T02:18:17;17.05;75.29
70300;HTU21D;57704;51.112;5.878;2022-07-29T02:20:50;17.02;75.62
70300;HTU21D;57704;51.112;5.878;2022-07-29T02:23:22;17.10;76.06
70300;HTU21D;57704;51.112;5.878;2022-07-29T02:25:57;17.16;76.18
70300;HTU21D;57704;51.112;5.878;2022-07-29T02:28:27;17.17;76.31
70300;HTU21D;57704;51.112;5.878;2022-07-29T02:30:58;17.11;76.47
70300;HTU21D;57704;51.112;5.878;2022-07-29T02:33:25;17.07;76.57
70300;HTU21D;57704;51.112;5.878;2022-07-29T02:35:56;17.09;76.99
70300;HTU21D;57704;51.112;5.878;2022-07-29T02:38:25;17.04;77.11
70300;HTU21D;57704;51.112;5.878;2022-07-29T02:41:33;17.04;77.18
70300;HTU21D;57704;51.112;5.878;2022-07-29T02:44:05;17.07;77.24
70300;HTU21D;57704;51.112;5.878;2022-07-29T02:46:35;17.11;77.01
70300;HTU21D;57704;51.112;5.878;2022-07-29T02:51:54;17.19;77.04
70300;HTU21D;57704;51.112;5.878;2022-07-29T03:00:02;17.30;77.13
70300;HTU21D;57704;51.112;5.878;2022-07-29T03:02:34;17.40;76.94
70300;HTU21D;57704;51.112;5.878;2022-07-29T03:05:02;17.41;76.95
70300;HTU21D;57704;51.112;5.878;2022-07-29T03:07:29;17.44;76.80
70300;HTU21D;57704;51.112;5.878;2022-07-29T03:09:58;17.46;77.01
70300;HTU21D;57704;51.112;5.878;2022-07-29T03:12:25;17.53;76.84
70300;HTU21D;57704;51.112;5.878;2022-07-29T03:14:53;17.56;76.63
70300;HTU21D;57704;51.112;5.878;2022-07-29T03:17:21;17.55;76.82
70300;HTU21D;57704;51.112;5.878;2022-07-29T03:19:48;17.60;76.76
70300;HTU21D;57704;51.112;5.878;2022-07-29T03:22:14;17.60;76.59
70300;HTU21D;57704;51.112;5.878;2022-07-29T03:24:40;17.60;76.37
70300;HTU21D;57704;51.112;5.878;2022-07-29T03:27:06;17.55;76.35
70300;HTU21D;57704;51.112;5.878;2022-07-29T03:29:32;17.56;76.28
70300;HTU21D;57704;51.112;5.878;2022-07-29T03:31:58;17.56;76.48
70300;HTU21D;57704;51.112;5.878;2022-07-29T03:34:24;17.53;76.37
70300;HTU21D;57704;51.112;5.878;2022-07-29T03:36:50;17.48;76.36
70300;HTU21D;57704;51.112;5.878;2022-07-29T03:39:22;17.50;76.40
70300;HTU21D;57704;51.112;5.878;2022-07-29T03:41:53;17.54;76.58
70300;HTU21D;57704;51.112;5.878;2022-07-29T03:44:22;17.50;76.43
70300;HTU21D;57704;51.112;5.878;2022-07-29T03:46:50;17.52;76.62
70300;HTU21D;57704;51.112;5.878;2022-07-29T03:49:20;17.49;76.34
70300;HTU21D;57704;51.112;5.878;2022-07-29T03:51:47;17.44;76.51
70300;HTU21D;57704;51.112;5.878;2022-07-29T03:54:14;17.37;76.63
70300;HTU21D;57704;51.112;5.878;2022-07-29T03:56:42;17.28;76.73
70300;HTU21D;57704;51.112;5.878;2022-07-29T03:59:13;17.21;76.99
70300;HTU21D;57704;51.112;5.878;2022-07-29T04:01:41;17.22;77.16
70300;HTU21D;57704;51.112;5.878;2022-07-29T04:04:08;17.25;77.08
70300;HTU21D;57704;51.112;5.878;2022-07-29T04:06:52;17.26;77.11
70300;HTU21D;57704;51.112;5.878;2022-07-29T04:09:18;17.33;77.17
70300;HTU21D;57704;51.112;5.878;2022-07-29T04:11:44;17.37;77.16
70300;HTU21D;57704;51.112;5.878;2022-07-29T04:14:11;17.43;77.15
70300;HTU21D;57704;51.112;5.878;2022-07-29T04:16:36;17.52;77.26
70300;HTU21D;57704;51.112;5.878;2022-07-29T04:19:02;17.64;77.23
70300;HTU21D;57704;51.112;5.878;2022-07-29T04:21:28;17.70;77.10
70300;HTU21D;57704;51.112;5.878;2022-07-29T04:23:54;17.75;77.03
70300;HTU21D;57704;51.112;5.878;2022-07-29T04:26:20;17.73;77.01
70300;HTU21D;57704;51.112;5.878;2022-07-29T04:28:46;17.81;76.88
70300;HTU21D;57704;51.112;5.878;2022-07-29T04:31:13;17.90;76.68
70300;HTU21D;57704;51.112;5.878;2022-07-29T04:33:39;17.98;76.45
70300;HTU21D;57704;51.112;5.878;2022-07-29T04:36:05;17.99;76.51
70300;HTU21D;57704;51.112;5.878;2022-07-29T04:38:31;18.00;76.50
70300;HTU21D;57704;51.112;5.878;2022-07-29T04:40:57;18.04;76.57
70300;HTU21D;57704;51.112;5.878;2022-07-29T04:43:23;18.09;76.60
70300;HTU21D;57704;51.112;5.878;2022-07-29T04:45:49;18.13;76.63
70300;HTU21D;57704;51.112;5.878;2022-07-29T04:48:14;18.23;76.78
70300;HTU21D;57704;51.112;5.878;2022-07-29T04:50:40;18.27;76.72
70300;HTU21D;57704;51.112;5.878;2022-07-29T04:53:07;18.23;76.53
70300;HTU21D;57704;51.112;5.878;2022-07-29T04:55:33;18.21;76.59
70300;HTU21D;57704;51.112;5.878;2022-07-29T04:57:59;18.19;76.59
70300;HTU21D;57704;51.112;5.878;2022-07-29T05:00:25;18.18;76.85
70300;HTU21D;57704;51.112;5.878;2022-07-29T05:02:51;18.20;76.82
70300;HTU21D;57704;51.112;5.878;2022-07-29T05:05:17;18.27;76.81
70300;HTU21D;57704;51.112;5.878;2022-07-29T05:07:43;18.30;76.65
70300;HTU21D;57704;51.112;5.878;2022-07-29T05:10:09;18.34;76.57
70300;HTU21D;57704;51.112;5.878;2022-07-29T05:12:35;18.35;76.51
70300;HTU21D;57704;51.112;5.878;2022-07-29T05:15:01;18.37;76.42
70300;HTU21D;57704;51.112;5.878;2022-07-29T05:17:27;18.41;76.45
70300;HTU21D;57704;51.112;5.878;2022-07-29T05:19:53;18.37;76.33
70300;HTU21D;57704;51.112;5.878;2022-07-29T05:22:20;18.34;76.41
70300;HTU21D;57704;51.112;5.878;2022-07-29T05:24:46;18.33;76.46
70300;HTU21D;57704;51.112;5.878;2022-07-29T05:27:12;18.33;76.38
70300;HTU21D;57704;51.112;5.878;2022-07-29T05:29:38;18.25;76.26
70300;HTU21D;57704;51.112;5.878;2022-07-29T05:32:05;18.12;76.30
70300;HTU21D;57704;51.112;5.878;2022-07-29T05:34:31;18.07;76.41
70300;HTU21D;57704;51.112;5.878;2022-07-29T05:36:57;18.02;76.79
70300;HTU21D;57704;51.112;5.878;2022-07-29T05:39:23;18.03;76.65
70300;HTU21D;57704;51.112;5.878;2022-07-29T05:41:49;18.05;76.73
70300;HTU21D;57704;51.112;5.878;2022-07-29T05:44:16;18.02;76.54
70300;HTU21D;57704;51.112;5.878;2022-07-29T05:46:41;17.97;76.66
70300;HTU21D;57704;51.112;5.878;2022-07-29T05:49:07;18.00;76.74
70300;HTU21D;57704;51.112;5.878;2022-07-29T05:51:34;18.11;76.65
70300;HTU21D;57704;51.112;5.878;2022-07-29T05:53:59;18.18;76.34
70300;HTU21D;57704;51.112;5.878;2022-07-29T05:56:25;18.22;76.34
70300;HTU21D;57704;51.112;5.878;2022-07-29T05:58:51;18.26;76.17
70300;HTU21D;57704;51.112;5.878;2022-07-29T06:01:18;18.36;76.07
70300;HTU21D;57704;51.112;5.878;2022-07-29T06:03:44;18.35;75.55
70300;HTU21D;57704;51.112;5.878;2022-07-29T06:06:10;18.27;75.83
70300;HTU21D;57704;51.112;5.878;2022-07-29T06:08:37;18.24;75.81
70300;HTU21D;57704;51.112;5.878;2022-07-29T06:11:04;18.18;76.12
70300;HTU21D;57704;51.112;5.878;2022-07-29T06:13:30;18.13;76.36
70300;HTU21D;57704;51.112;5.878;2022-07-29T06:15:56;18.13;76.54
70300;HTU21D;57704;51.112;5.878;2022-07-29T06:18:22;18.21;76.57
70300;HTU21D;57704;51.112;5.878;2022-07-29T06:20:50;18.33;76.25
70300;HTU21D;57704;51.112;5.878;2022-07-29T06:23:17;18.38;76.14
70300;HTU21D;57704;51.112;5.878;2022-07-29T06:25:44;18.48;76.08
70300;HTU21D;57704;51.112;5.878;2022-07-29T06:28:11;18.56;75.39
70300;HTU21D;57704;51.112;5.878;2022-07-29T06:30:38;18.50;75.64
70300;HTU21D;57704;51.112;5.878;2022-07-29T06:33:05;18.51;75.57
70300;HTU21D;57704;51.112;5.878;2022-07-29T06:35:33;18.51;75.55
70300;HTU21D;57704;51.112;5.878;2022-07-29T06:38:02;18.51;75.71
70300;HTU21D;57704;51.112;5.878;2022-07-29T06:40:28;18.56;75.50
70300;HTU21D;57704;51.112;5.878;2022-07-29T06:43:13;18.63;74.31
70300;HTU21D;57704;51.112;5.878;2022-07-29T06:45:39;18.48;74.41
70300;HTU21D;57704;51.112;5.878;2022-07-29T06:48:06;18.34;74.82
70300;HTU21D;57704;51.112;5.878;2022-07-29T06:50:33;18.26;74.93
70300;HTU21D;57704;51.112;5.878;2022-07-29T06:52:58;18.25;75.01
70300;HTU21D;57704;51.112;5.878;2022-07-29T06:55:24;18.35;74.96
70300;HTU21D;57704;51.112;5.878;2022-07-29T06:57:50;18.47;74.92
70300;HTU21D;57704;51.112;5.878;2022-07-29T07:00:16;18.57;74.51
70300;HTU21D;57704;51.112;5.878;2022-07-29T07:02:42;18.67;74.25
70300;HTU21D;57704;51.112;5.878;2022-07-29T07:05:08;18.73;73.70
70300;HTU21D;57704;51.112;5.878;2022-07-29T07:07:34;18.77;73.15
70300;HTU21D;57704;51.112;5.878;2022-07-29T07:10:00;18.80;73.00
70300;HTU21D;57704;51.112;5.878;2022-07-29T07:12:26;18.86;72.89
70300;HTU21D;57704;51.112;5.878;2022-07-29T07:14:53;18.92;72.64
70300;HTU21D;57704;51.112;5.878;2022-07-29T07:17:19;18.96;72.48
70300;HTU21D;57704;51.112;5.878;2022-07-29T07:19:45;19.03;72.42
70300;HTU21D;57704;51.112;5.878;2022-07-29T07:22:11;19.10;72.32
70300;HTU21D;57704;51.112;5.878;2022-07-29T07:24:36;19.16;72.19
70300;HTU21D;57704;51.112;5.878;2022-07-29T07:27:03;19.27;72.16
70300;HTU21D;57704;51.112;5.878;2022-07-29T07:29:29;19.38;72.16
70300;HTU21D;57704;51.112;5.878;2022-07-29T07:31:55;19.43;71.84
70300;HTU21D;57704;51.112;5.878;2022-07-29T07:34:22;19.54;71.96
70300;HTU21D;57704;51.112;5.878;2022-07-29T07:36:48;19.65;72.49
70300;HTU21D;57704;51.112;5.878;2022-07-29T07:39:14;19.85;74.70
70300;HTU21D;57704;51.112;5.878;2022-07-29T07:41:41;20.29;75.78
70300;HTU21D;57704;51.112;5.878;2022-07-29T07:44:06;20.75;74.41
70300;HTU21D;57704;51.112;5.878;2022-07-29T07:46:32;21.17;73.29
70300;HTU21D;57704;51.112;5.878;2022-07-29T07:48:59;21.68;70.91
70300;HTU21D;57704;51.112;5.878;2022-07-29T07:51:25;22.24;69.71
70300;HTU21D;57704;51.112;5.878;2022-07-29T07:53:50;22.86;68.20
70300;HTU21D;57704;51.112;5.878;2022-07-29T07:56:17;23.41;65.31
70300;HTU21D;57704;51.112;5.878;2022-07-29T07:58:42;23.67;62.92
70300;HTU21D;57704;51.112;5.878;2022-07-29T08:01:09;23.54;61.23
70300;HTU21D;57704;51.112;5.878;2022-07-29T08:03:36;23.28;61.39
70300;HTU21D;57704;51.112;5.878;2022-07-29T08:06:03;23.10;61.58
70300;HTU21D;57704;51.112;5.878;2022-07-29T08:08:29;22.93;62.19
70300;HTU21D;57704;51.112;5.878;2022-07-29T08:10:55;22.95;62.93
70300;HTU21D;57704;51.112;5.878;2022-07-29T08:13:23;23.29;63.14
70300;HTU21D;57704;51.112;5.878;2022-07-29T08:15:50;23.62;61.26
70300;HTU21D;57704;51.112;5.878;2022-07-29T08:18:28;23.77;61.65
70300;HTU21D;57704;51.112;5.878;2022-07-29T08:20:55;24.02;61.25
70300;HTU21D;57704;51.112;5.878;2022-07-29T08:23:21;24.30;60.91
70300;HTU21D;57704;51.112;5.878;2022-07-29T08:25:49;24.41;60.56
70300;HTU21D;57704;51.112;5.878;2022-07-29T08:28:16;24.70;60.35
70300;HTU21D;57704;51.112;5.878;2022-07-29T08:30:41;24.91;58.79
70300;HTU21D;57704;51.112;5.878;2022-07-29T08:33:07;24.84;57.73
70300;HTU21D;57704;51.112;5.878;2022-07-29T08:35:33;24.66;57.19
70300;HTU21D;57704;51.112;5.878;2022-07-29T08:37:59;24.51;58.05
70300;HTU21D;57704;51.112;5.878;2022-07-29T08:40:25;24.73;59.01
70300;HTU21D;57704;51.112;5.878;2022-07-29T08:42:51;25.10;57.77
70300;HTU21D;57704;51.112;5.878;2022-07-29T08:45:18;25.34;56.11
70300;HTU21D;57704;51.112;5.878;2022-07-29T08:47:44;25.45;54.75
70300;HTU21D;57704;51.112;5.878;2022-07-29T08:50:11;25.61;55.60
70300;HTU21D;57704;51.112;5.878;2022-07-29T08:52:39;25.89;54.90
70300;HTU21D;57704;51.112;5.878;2022-07-29T08:55:07;26.17;54.63
70300;HTU21D;57704;51.112;5.878;2022-07-29T08:57:35;26.54;54.01
70300;HTU21D;57704;51.112;5.878;2022-07-29T09:00:06;26.86;52.52
70300;HTU21D;57704;51.112;5.878;2022-07-29T09:02:39;26.72;52.31
70300;HTU21D;57704;51.112;5.878;2022-07-29T09:05:08;26.80;52.26
70300;HTU21D;57704;51.112;5.878;2022-07-29T09:07:34;26.96;51.53
70300;HTU21D;57704;51.112;5.878;2022-07-29T09:10:01;27.06;50.95
70300;HTU21D;57704;51.112;5.878;2022-07-29T09:12:29;27.12;50.28
70300;HTU21D;57704;51.112;5.878;2022-07-29T09:14:55;27.07;50.62
70300;HTU21D;57704;51.112;5.878;2022-07-29T09:17:47;27.12;50.12
70300;HTU21D;57704;51.112;5.878;2022-07-29T09:20:19;27.08;50.06
70300;HTU21D;57704;51.112;5.878;2022-07-29T09:22:46;27.02;49.68
70300;HTU21D;57704;51.112;5.878;2022-07-29T09:25:37;26.90;50.06
70300;HTU21D;57704;51.112;5.878;2022-07-29T09:28:11;26.67;50.59
70300;HTU21D;57704;51.112;5.878;2022-07-29T09:30:55;26.82;50.56
70300;HTU21D;57704;51.112;5.878;2022-07-29T09:33:23;27.19;49.01
70300;HTU21D;57704;51.112;5.878;2022-07-29T09:36:09;27.29;48.35
70300;HTU21D;57704;51.112;5.878;2022-07-29T09:38:36;27.45;48.53
70300;HTU21D;57704;51.112;5.878;2022-07-29T09:41:05;27.83;47.55
70300;HTU21D;57704;51.112;5.878;2022-07-29T09:43:33;28.12;46.54
70300;HTU21D;57704;51.112;5.878;2022-07-29T09:46:12;28.26;45.43
70300;HTU21D;57704;51.112;5.878;2022-07-29T09:48:41;28.19;45.27
70300;HTU21D;57704;51.112;5.878;2022-07-29T09:51:37;28.14;45.91
70300;HTU21D;57704;51.112;5.878;2022-07-29T09:54:25;28.10;45.43
70300;HTU21D;57704;51.112;5.878;2022-07-29T09:56:54;27.87;45.32
70300;HTU21D;57704;51.112;5.878;2022-07-29T09:59:20;27.81;45.70
70300;HTU21D;57704;51.112;5.878;2022-07-29T10:01:49;27.87;45.31
70300;HTU21D;57704;51.112;5.878;2022-07-29T10:04:21;27.67;45.25
70300;HTU21D;57704;51.112;5.878;2022-07-29T10:07:01;27.42;45.89
70300;HTU21D;57704;51.112;5.878;2022-07-29T10:09:31;27.59;45.64
70300;HTU21D;57704;51.112;5.878;2022-07-29T10:14:36;27.95;45.02
70300;HTU21D;57704;51.112;5.878;2022-07-29T10:17:04;28.21;44.85
70300;HTU21D;57704;51.112;5.878;2022-07-29T10:19:32;28.53;44.35
70300;HTU21D;57704;51.112;5.878;2022-07-29T10:22:00;28.87;43.16
70300;HTU21D;57704;51.112;5.878;2022-07-29T10:24:28;29.03;43.31
70300;HTU21D;57704;51.112;5.878;2022-07-29T10:27:00;29.43;42.49
70300;HTU21D;57704;51.112;5.878;2022-07-29T10:29:28;29.58;41.46
70300;HTU21D;57704;51.112;5.878;2022-07-29T10:32:16;29.44;41.88
70300;HTU21D;57704;51.112;5.878;2022-07-29T10:43:46;30.00;40.33
70300;HTU21D;57704;51.112;5.878;2022-07-29T10:46:14;30.22;39.94
70300;HTU21D;57704;51.112;5.878;2022-07-29T10:49:18;30.63;39.07
70300;HTU21D;57704;51.112;5.878;2022-07-29T10:59:49;31.14;37.34
70300;HTU21D;57704;51.112;5.878;2022-07-29T11:05:14;31.40;36.77
70300;HTU21D;57704;51.112;5.878;2022-07-29T11:08:16;31.70;36.18
70300;HTU21D;57704;51.112;5.878;2022-07-29T11:10:43;32.05;35.22
70300;HTU21D;57704;51.112;5.878;2022-07-29T11:13:10;32.11;35.33
70300;HTU21D;57704;51.112;5.878;2022-07-29T11:15:56;31.94;35.45
70300;HTU21D;57704;51.112;5.878;2022-07-29T11:18:23;32.02;35.31
70300;HTU21D;57704;51.112;5.878;2022-07-29T11:20:51;31.79;35.67
70300;HTU21D;57704;51.112;5.878;2022-07-29T11:23:34;32.05;35.43
70300;HTU21D;57704;51.112;5.878;2022-07-29T11:26:18;32.35;34.60
70300;HTU21D;57704;51.112;5.878;2022-07-29T11:31:40;32.61;33.99
70300;HTU21D;57704;51.112;5.878;2022-07-29T11:45:21;33.88;31.66
70300;HTU21D;57704;51.112;5.878;2022-07-29T11:47:51;34.11;31.46
70300;HTU21D;57704;51.112;5.878;2022-07-29T11:50:31;34.32;31.08
70300;HTU21D;57704;51.112;5.878;2022-07-29T11:52:58;34.62;30.86
70300;HTU21D;57704;51.112;5.878;2022-07-29T11:55:25;34.82;30.64
70300;HTU21D;57704;51.112;5.878;2022-07-29T11:57:58;35.09;30.54
70300;HTU21D;57704;51.112;5.878;2022-07-29T12:00:46;35.53;29.88
70300;HTU21D;57704;51.112;5.878;2022-07-29T12:03:24;35.84;29.22
70300;HTU21D;57704;51.112;5.878;2022-07-29T12:05:50;36.14;29.10
70300;HTU21D;57704;51.112;5.878;2022-07-29T12:08:20;36.61;28.39
70300;HTU21D;57704;51.112;5.878;2022-07-29T12:10:49;37.01;27.95
70300;HTU21D;57704;51.112;5.878;2022-07-29T12:13:19;37.49;26.85
70300;HTU21D;57704;51.112;5.878;2022-07-29T12:15:56;37.76;26.39
70300;HTU21D;57704;51.112;5.878;2022-07-29T12:18:23;37.77;26.33
70300;HTU21D;57704;51.112;5.878;2022-07-29T12:20:56;37.85;26.33
70300;HTU21D;57704;51.112;5.878;2022-07-29T12:23:23;37.91;26.03
70300;HTU21D;57704;51.112;5.878;2022-07-29T12:25:49;38.02;25.36
70300;HTU21D;57704;51.112;5.878;2022-07-29T12:28:15;38.03;24.82
70300;HTU21D;57704;51.112;5.878;2022-07-29T12:30:51;38.02;25.21
70300;HTU21D;57704;51.112;5.878;2022-07-29T12:33:21;37.96;25.03
70300;HTU21D;57704;51.112;5.878;2022-07-29T12:35:59;37.87;25.17
70300;HTU21D;57704;51.112;5.878;2022-07-29T12:38:26;37.34;24.91
70300;HTU21D;57704;51.112;5.878;2022-07-29T12:40:54;36.19;26.63
70300;HTU21D;57704;51.112;5.878;2022-07-29T12:43:25;35.64;27.81
70300;HTU21D;57704;51.112;5.878;2022-07-29T12:45:55;36.11;27.59
70300;HTU21D;57704;51.112;5.878;2022-07-29T12:48:40;36.69;26.71
70300;HTU21D;57704;51.112;5.878;2022-07-29T12:51:07;36.60;26.59
70300;HTU21D;57704;51.112;5.878;2022-07-29T12:53:35;36.58;26.94
70300;HTU21D;57704;51.112;5.878;2022-07-29T12:56:03;37.05;25.92
70300;HTU21D;57704;51.112;5.878;2022-07-29T12:58:41;37.26;25.77
70300;HTU21D;57704;51.112;5.878;2022-07-29T13:01:15;37.48;25.61
70300;HTU21D;57704;51.112;5.878;2022-07-29T13:03:51;37.36;25.39
70300;HTU21D;57704;51.112;5.878;2022-07-29T13:06:46;36.96;25.94
70300;HTU21D;57704;51.112;5.878;2022-07-29T13:09:18;36.75;25.91
70300;HTU21D;57704;51.112;5.878;2022-07-29T13:11:47;36.40;26.57
70300;HTU21D;57704;51.112;5.878;2022-07-29T13:17:22;35.64;27.24
70300;HTU21D;57704;51.112;5.878;2022-07-29T13:20:09;35.38;27.78
70300;HTU21D;57704;51.112;5.878;2022-07-29T13:22:38;35.31;27.80
70300;HTU21D;57704;51.112;5.878;2022-07-29T13:25:06;35.39;27.71
70300;HTU21D;57704;51.112;5.878;2022-07-29T13:27:34;35.20;27.74
70300;HTU21D;57704;51.112;5.878;2022-07-29T13:30:05;34.96;28.25
70300;HTU21D;57704;51.112;5.878;2022-07-29T13:32:32;34.91;28.35
70300;HTU21D;57704;51.112;5.878;2022-07-29T13:35:03;34.85;28.77
70300;HTU21D;57704;51.112;5.878;2022-07-29T13:37:29;35.12;28.46
70300;HTU21D;57704;51.112;5.878;2022-07-29T13:39:56;35.42;27.92
70300;HTU21D;57704;51.112;5.878;2022-07-29T13:42:23;35.30;27.78
70300;HTU21D;57704;51.112;5.878;2022-07-29T13:44:49;35.18;28.16
70300;HTU21D;57704;51.112;5.878;2022-07-29T13:47:18;35.25;27.84
70300;HTU21D;57704;51.112;5.878;2022-07-29T13:49:44;35.14;28.19
70300;HTU21D;57704;51.112;5.878;2022-07-29T13:52:10;34.97;28.10
70300;HTU21D;57704;51.112;5.878;2022-07-29T13:54:37;34.92;28.43
70300;HTU21D;57704;51.112;5.878;2022-07-29T13:57:06;34.88;28.30
70300;HTU21D;57704;51.112;5.878;2022-07-29T13:59:33;34.70;28.43
70300;HTU21D;57704;51.112;5.878;2022-07-29T14:01:59;34.74;28.71
70300;HTU21D;57704;51.112;5.878;2022-07-29T14:04:25;34.65;28.45
70300;HTU21D;57704;51.112;5.878;2022-07-29T14:06:51;34.41;28.57
70300;HTU21D;57704;51.112;5.878;2022-07-29T14:09:18;34.15;29.01
70300;HTU21D;57704;51.112;5.878;2022-07-29T14:11:44;34.07;29.11
70300;HTU21D;57704;51.112;5.878;2022-07-29T14:14:11;34.06;29.03
70300;HTU21D;57704;51.112;5.878;2022-07-29T14:16:37;34.07;29.02
70300;HTU21D;57704;51.112;5.878;2022-07-29T14:19:03;34.04;29.41
70300;HTU21D;57704;51.112;5.878;2022-07-29T14:21:29;34.24;28.98
70300;HTU21D;57704;51.112;5.878;2022-07-29T14:23:56;34.33;28.83
70300;HTU21D;57704;51.112;5.878;2022-07-29T14:26:22;34.25;28.61
70300;HTU21D;57704;51.112;5.878;2022-07-29T14:28:48;34.12;28.93
70300;HTU21D;57704;51.112;5.878;2022-07-29T14:31:15;34.05;29.01
70300;HTU21D;57704;51.112;5.878;2022-07-29T14:33:41;34.01;29.11
70300;HTU21D;57704;51.112;5.878;2022-07-29T14:36:08;33.96;28.77
70300;HTU21D;57704;51.112;5.878;2022-07-29T14:38:37;33.79;29.22
70300;HTU21D;57704;51.112;5.878;2022-07-29T14:41:04;33.75;29.25
70300;HTU21D;57704;51.112;5.878;2022-07-29T14:43:29;33.78;29.39
70300;HTU21D;57704;51.112;5.878;2022-07-29T14:45:55;33.80;29.06
70300;HTU21D;57704;51.112;5.878;2022-07-29T14:48:24;33.83;28.99
70300;HTU21D;57704;51.112;5.878;2022-07-29T14:50:50;33.79;29.03
70300;HTU21D;57704;51.112;5.878;2022-07-29T14:53:16;33.73;28.96
70300;HTU21D;57704;51.112;5.878;2022-07-29T14:55:43;33.46;29.07
70300;HTU21D;57704;51.112;5.878;2022-07-29T14:58:09;33.16;29.55
70300;HTU21D;57704;51.112;5.878;2022-07-29T15:00:36;32.98;30.06
70300;HTU21D;57704;51.112;5.878;2022-07-29T15:03:04;32.75;30.23
70300;HTU21D;57704;51.112;5.878;2022-07-29T15:05:31;32.46;30.79
70300;HTU21D;57704;51.112;5.878;2022-07-29T15:08:06;32.40;30.66
70300;HTU21D;57704;51.112;5.878;2022-07-29T15:10:34;32.35;31.15
70300;HTU21D;57704;51.112;5.878;2022-07-29T15:13:00;32.43;31.12
70300;HTU21D;57704;51.112;5.878;2022-07-29T15:15:26;32.56;30.90
70300;HTU21D;57704;51.112;5.878;2022-07-29T15:17:52;32.61;30.81
70300;HTU21D;57704;51.112;5.878;2022-07-29T15:20:25;32.57;31.05
70300;HTU21D;57704;51.112;5.878;2022-07-29T15:22:53;32.61;31.28
70300;HTU21D;57704;51.112;5.878;2022-07-29T15:25:22;32.75;31.12
70300;HTU21D;57704;51.112;5.878;2022-07-29T15:27:48;32.88;30.61
70300;HTU21D;57704;51.112;5.878;2022-07-29T15:30:14;32.88;30.27
70300;HTU21D;57704;51.112;5.878;2022-07-29T15:32:44;32.83;30.36
70300;HTU21D;57704;51.112;5.878;2022-07-29T15:35:11;32.78;30.09
70300;HTU21D;57704;51.112;5.878;2022-07-29T15:37:38;32.69;29.98
70300;HTU21D;57704;51.112;5.878;2022-07-29T15:40:07;32.69;30.05
70300;HTU21D;57704;51.112;5.878;2022-07-29T15:42:35;32.69;30.12
70300;HTU21D;57704;51.112;5.878;2022-07-29T15:45:03;32.58;30.45
70300;HTU21D;57704;51.112;5.878;2022-07-29T15:47:29;32.47;30.37
70300;HTU21D;57704;51.112;5.878;2022-07-29T15:49:55;32.40;30.43
70300;HTU21D;57704;51.112;5.878;2022-07-29T15:52:24;32.17;30.58
70300;HTU21D;57704;51.112;5.878;2022-07-29T15:54:54;31.97;30.82
70300;HTU21D;57704;51.112;5.878;2022-07-29T15:57:20;31.70;31.24
70300;HTU21D;57704;51.112;5.878;2022-07-29T15:59:46;31.61;31.55
70300;HTU21D;57704;51.112;5.878;2022-07-29T16:02:12;31.49;31.77
70300;HTU21D;57704;51.112;5.878;2022-07-29T16:04:38;31.36;32.02
70300;HTU21D;57704;51.112;5.878;2022-07-29T16:07:06;31.23;31.99
70300;HTU21D;57704;51.112;5.878;2022-07-29T16:09:32;31.09;32.29
70300;HTU21D;57704;51.112;5.878;2022-07-29T16:11:58;31.01;32.19
70300;HTU21D;57704;51.112;5.878;2022-07-29T16:14:24;30.82;32.56
70300;HTU21D;57704;51.112;5.878;2022-07-29T16:16:51;30.72;32.88
70300;HTU21D;57704;51.112;5.878;2022-07-29T16:19:16;30.66;33.10
70300;HTU21D;57704;51.112;5.878;2022-07-29T16:21:42;30.50;32.90
70300;HTU21D;57704;51.112;5.878;2022-07-29T16:24:08;30.33;33.28
70300;HTU21D;57704;51.112;5.878;2022-07-29T16:26:35;30.25;33.44
70300;HTU21D;57704;51.112;5.878;2022-07-29T16:29:02;30.19;33.42
70300;HTU21D;57704;51.112;5.878;2022-07-29T16:31:28;30.18;33.73